EAGO2: Mountain Fork Riv, Eagletown,

Data processed at Wed May 22 2019 23:50


All information presented herein is the property of the government of the United States of America and may be revised or deleted at any time without prior notice.
Dissemination of this information without the expressed written consent of the Public Affairs Office, Tulsa District U.S. Army Corps of Engineers is strictly prohibited.
These data are gathered electronically and, as presented, have not undergone any form of quality control. These data are not guaranteed to be valid or correct.
Go to home page.
Go to station list.
Go to home page.

Upstream stations:

Downstream station:
Previous Day
Next Day
Current Day
    
SHEF ID:       EAGO2     Mountain Fork near Eagletown, OK
STATION TYPE:  
Regulating: Stage =     9.00, Flow =     8444

               PRECIP     STAGE  RIV-FLOW  BAT-LOAD
                   in        ft       cfs      volt
              Ccp-Rev   Ccp-Rev   Ccp-Rev   Ccp-Rev
(US/Central)
05/22 00:00      ----      2.77      1724     12.97
05/22 01:00      ----      2.68      1667     12.97
05/22 02:00      ----      2.59      1611     12.97
05/22 03:00      ----      2.51      1514     12.89
05/22 04:00      ----      2.43      1374     12.89
05/22 05:00      ----      2.36      1257     12.89
05/22 06:00      ----      2.30      1159     12.89
05/22 07:00      ----      2.23      1049     12.81
05/22 08:00      ----      2.18       974     12.89
05/22 09:00      ----      2.12       886     13.05
05/22 10:00      ----      2.07       816     13.29
05/22 11:00      ----      2.03       761     13.60
05/22 12:00      ----      1.99       715     13.60
05/22 13:00      ----      1.93       681     13.84
05/22 14:00      ----      1.87       647     13.92
05/22 15:00      ----      1.93       681     13.84
05/22 16:00      ----      2.40      1323     13.76
05/22 17:00      ----      3.23      2027     13.84
05/22 18:00      ----      3.87      2481     13.76
05/22 19:00      ----      4.49      2956     13.44
05/22 20:00      ----      4.90      3288     13.21
05/22 21:00      ----      5.05      3413     13.13
05/22 22:00      ----      4.92      3305     13.13
05/22 23:00      ----      4.75      3165     13.05